createdAt,value
2022-10-23T00:02:54.492Z,65.03
2022-10-23T00:13:23.570Z,65.32
2022-10-23T00:16:03.685Z,65.63
2022-10-23T00:18:49.944Z,65.21
2022-10-23T00:21:25.227Z,65.30
2022-10-23T00:24:47.297Z,65.83
2022-10-23T00:27:22.482Z,65.28
2022-10-23T00:29:52.961Z,65.32
2022-10-23T00:32:20.550Z,65.12
2022-10-23T00:34:50.600Z,65.62
2022-10-23T00:37:18.125Z,65.47
2022-10-23T00:39:45.601Z,65.48
2022-10-23T00:42:18.938Z,65.84
2022-10-23T00:44:46.294Z,65.82
2022-10-23T00:47:16.998Z,65.96
2022-10-23T00:49:46.782Z,66.11
2022-10-23T00:52:14.399Z,65.99
2022-10-23T00:54:43.716Z,65.95
2022-10-23T00:57:14.096Z,65.87
2022-10-23T00:59:45.021Z,65.80
2022-10-23T01:02:18.275Z,65.89
2022-10-23T01:12:59.288Z,65.85
2022-10-23T01:20:18.684Z,66.28
2022-10-23T01:23:58.197Z,66.59
2022-10-23T01:30:48.679Z,66.35
2022-10-23T01:33:26.222Z,66.88
2022-10-23T01:36:01.775Z,66.87
2022-10-23T01:38:43.172Z,67.11
2022-10-23T01:41:28.676Z,67.33
2022-10-23T01:44:14.716Z,68.09
2022-10-23T01:46:45.368Z,67.62
2022-10-23T01:49:15.169Z,67.75
2022-10-23T01:51:50.736Z,68.24
2022-10-23T01:54:21.699Z,68.06
2022-10-23T01:56:51.418Z,68.15
2022-10-23T01:59:30.445Z,68.23
2022-10-23T02:02:03.300Z,68.15
2022-10-23T02:04:36.705Z,68.18
2022-10-23T02:07:07.152Z,68.23
2022-10-23T02:09:37.269Z,68.50
2022-10-23T02:12:19.744Z,68.55
2022-10-23T02:14:47.290Z,68.88
2022-10-23T02:17:27.897Z,69.28
2022-10-23T02:20:22.380Z,69.53
2022-10-23T02:23:05.456Z,69.69
2022-10-23T02:25:50.687Z,69.80
2022-10-23T02:28:27.622Z,69.88
2022-10-23T02:31:01.117Z,70.24
2022-10-23T02:33:33.286Z,69.86
2022-10-23T02:36:00.937Z,69.96
2022-10-23T02:38:45.278Z,70.52
2022-10-23T02:45:34.333Z,71.01
2022-10-23T03:00:46.098Z,71.01
2022-10-23T03:03:20.624Z,71.65
2022-10-23T03:05:51.493Z,71.22
2022-10-23T03:08:29.937Z,71.28
2022-10-23T03:10:57.651Z,71.39
2022-10-23T03:13:28.212Z,71.40
2022-10-23T03:15:55.640Z,71.51
2022-10-23T03:18:23.166Z,71.86
2022-10-23T03:20:51.994Z,71.76
2022-10-23T03:23:25.789Z,71.68
2022-10-23T03:25:56.536Z,71.87
2022-10-23T03:28:41.167Z,71.75
2022-10-23T03:31:08.744Z,71.76
2022-10-23T03:33:38.180Z,71.83
2022-10-23T03:36:13.275Z,71.77
2022-10-23T03:38:44.418Z,71.65
2022-10-23T03:41:11.890Z,72.18
2022-10-23T03:43:39.509Z,72.37
2022-10-23T03:46:09.960Z,72.12
2022-10-23T03:48:38.418Z,72.38
2022-10-23T03:51:06.741Z,72.56
2022-10-23T03:53:34.640Z,72.27
2022-10-23T03:56:59.728Z,73.16
2022-10-23T04:01:00.887Z,72.83
2022-10-23T04:12:23.563Z,73.20
2022-10-23T04:20:34.573Z,73.69
2022-10-23T04:23:42.730Z,72.90
2022-10-23T04:30:41.718Z,74.26
2022-10-23T04:33:22.814Z,73.45
2022-10-23T04:39:52.002Z,73.50
2022-10-23T04:42:30.756Z,73.27
2022-10-23T04:45:01.399Z,73.26
2022-10-23T04:47:31.585Z,73.14
2022-10-23T04:50:02.604Z,73.55
2022-10-23T04:52:57.409Z,73.31
2022-10-23T04:55:58.449Z,72.93
2022-10-23T04:58:48.897Z,72.87
2022-10-23T05:06:13.257Z,72.58
2022-10-23T05:22:22.155Z,71.48
2022-10-23T05:25:31.758Z,71.02
2022-10-23T05:29:42.072Z,70.76
2022-10-23T05:37:14.382Z,70.58
2022-10-23T05:43:59.487Z,70.34
2022-10-23T05:47:43.338Z,69.85
2022-10-23T05:50:28.565Z,69.79
2022-10-23T05:53:23.813Z,69.93
2022-10-23T05:56:05.868Z,70.25
2022-10-23T05:58:48.612Z,70.07
2022-10-23T06:01:46.500Z,69.75
2022-10-23T06:04:18.577Z,69.63
2022-10-23T06:07:22.728Z,69.34
2022-10-23T06:09:53.133Z,69.42
2022-10-23T06:12:23.621Z,68.89
2022-10-23T06:15:01.375Z,68.93
2022-10-23T06:17:49.292Z,68.96
2022-10-23T06:20:16.831Z,68.90
2022-10-23T06:22:49.604Z,68.50
2022-10-23T06:25:34.618Z,68.51
2022-10-23T06:28:36.794Z,68.62
2022-10-23T06:47:40.373Z,67.88
2022-10-23T06:50:31.787Z,67.68
2022-10-23T06:53:05.831Z,68.01
2022-10-23T06:55:43.190Z,67.63
2022-10-23T06:58:11.116Z,67.60
2022-10-23T07:00:55.358Z,68.04
2022-10-23T07:03:29.459Z,67.41
2022-10-23T07:06:24.789Z,67.85
2022-10-23T07:10:04.929Z,67.67
2022-10-23T07:12:54.402Z,67.50
2022-10-23T07:15:41.437Z,67.46
2022-10-23T07:19:03.350Z,67.24
2022-10-23T07:21:46.132Z,67.35
2022-10-23T07:24:38.556Z,67.25
2022-10-23T07:27:14.963Z,67.40
2022-10-23T07:29:43.502Z,67.71
2022-10-23T07:32:20.075Z,67.19
2022-10-23T07:35:09.107Z,67.44
2022-10-23T07:37:44.365Z,67.51
2022-10-23T07:40:15.227Z,67.15
2022-10-23T07:42:45.317Z,67.86
2022-10-23T07:45:15.341Z,67.67
2022-10-23T07:47:51.067Z,68.14
2022-10-23T07:50:22.184Z,67.98
2022-10-23T07:52:49.814Z,68.15
2022-10-23T07:55:22.489Z,68.04
2022-10-23T07:57:55.019Z,67.72
2022-10-23T08:00:56.269Z,68.12
2022-10-23T08:03:37.544Z,68.21
2022-10-23T08:06:05.234Z,67.96
2022-10-23T08:08:35.037Z,67.44
2022-10-23T08:11:05.058Z,67.74
2022-10-23T08:13:44.389Z,67.94
2022-10-23T08:16:12.668Z,67.83
2022-10-23T08:18:58.735Z,67.66
2022-10-23T08:21:31.960Z,67.55
2022-10-23T08:24:00.873Z,67.70
2022-10-23T08:26:29.553Z,67.52
2022-10-23T08:29:00.502Z,67.62
2022-10-23T08:31:31.538Z,67.45
2022-10-23T08:34:27.566Z,68.06
2022-10-23T08:37:00.851Z,67.72
2022-10-23T08:39:28.597Z,67.66
2022-10-23T08:42:22.250Z,68.24
2022-10-23T08:58:36.478Z,67.57
2022-10-23T09:10:45.996Z,67.89
2022-10-23T09:14:02.293Z,67.94
2022-10-23T09:17:46.424Z,67.73
2022-10-23T09:20:20.586Z,67.82
2022-10-23T09:22:50.049Z,67.80
2022-10-23T09:25:29.747Z,68.08
2022-10-23T09:28:01.608Z,67.88
2022-10-23T09:30:40.295Z,67.97
2022-10-23T09:33:24.877Z,68.02
2022-10-23T09:36:20.895Z,67.87
2022-10-23T09:39:26.920Z,68.16
2022-10-23T09:42:35.791Z,68.45
2022-10-23T09:50:02.142Z,68.16
2022-10-23T10:13:30.370Z,69.05
2022-10-23T10:21:00.530Z,69.89
2022-10-23T10:28:17.896Z,69.76
2022-10-23T10:44:26.996Z,70.35
2022-10-23T10:47:41.336Z,70.69
2022-10-23T10:50:44.066Z,70.60
2022-10-23T10:54:50.777Z,71.54
2022-10-23T11:12:58.382Z,71.93
2022-10-23T11:28:33.990Z,72.41
2022-10-23T11:36:11.228Z,73.00
2022-10-23T11:38:53.924Z,72.79
2022-10-23T11:42:05.343Z,73.95
2022-10-23T11:44:34.886Z,73.37
2022-10-23T11:47:27.034Z,73.52
2022-10-23T11:50:09.627Z,73.38
2022-10-23T11:53:12.619Z,73.60
2022-10-23T11:56:19.609Z,73.84
2022-10-23T11:58:48.907Z,73.07
2022-10-23T12:01:25.450Z,73.53
2022-10-23T12:04:04.799Z,73.79
2022-10-23T12:06:40.568Z,74.06
2022-10-23T12:09:46.469Z,74.24
2022-10-23T12:12:28.362Z,74.42
2022-10-23T12:15:19.199Z,75.22
2022-10-23T12:17:51.718Z,74.99
2022-10-23T12:20:48.252Z,75.74
2022-10-23T12:23:55.344Z,76.52
2022-10-23T12:26:55.339Z,76.11
2022-10-23T12:29:35.036Z,75.52
2022-10-23T12:32:28.929Z,76.45
2022-10-23T12:35:23.962Z,76.41
2022-10-23T12:38:18.396Z,76.39
2022-10-23T12:41:15.527Z,76.20
2022-10-23T12:43:53.692Z,75.95
2022-10-23T12:46:38.425Z,75.91
2022-10-23T12:49:19.978Z,75.54
2022-10-23T12:51:56.136Z,75.64
2022-10-23T12:54:27.244Z,75.46
2022-10-23T12:56:54.845Z,75.73
2022-10-23T12:59:37.200Z,75.85
2022-10-23T13:02:33.953Z,76.42
2022-10-23T13:05:09.113Z,75.81
2022-10-23T13:07:42.751Z,75.30
2022-10-23T13:10:16.418Z,75.60
2022-10-23T13:13:05.478Z,75.95
2022-10-23T13:15:41.541Z,76.08
2022-10-23T13:18:10.737Z,75.63
2022-10-23T13:20:41.975Z,75.88
2022-10-23T13:23:31.426Z,76.31
2022-10-23T13:26:24.749Z,76.16
2022-10-23T13:28:55.632Z,75.71
2022-10-23T13:31:32.716Z,75.66
2022-10-23T13:34:00.220Z,75.54
2022-10-23T13:36:30.015Z,75.09
2022-10-23T13:39:10.694Z,75.16
2022-10-23T13:41:46.706Z,75.45
2022-10-23T13:44:20.084Z,75.57
2022-10-23T13:46:48.547Z,74.86
2022-10-23T13:49:20.026Z,74.67
2022-10-23T13:51:57.911Z,74.62
2022-10-23T13:54:30.184Z,74.75
2022-10-23T13:57:00.701Z,74.92
2022-10-23T13:59:30.790Z,75.02
2022-10-23T14:02:00.803Z,75.03
2022-10-23T14:04:28.331Z,75.11
2022-10-23T14:06:58.716Z,75.11
2022-10-23T14:17:48.616Z,75.06
2022-10-23T14:20:24.323Z,75.39
2022-10-23T14:22:53.316Z,75.26
2022-10-23T14:25:20.787Z,74.98
2022-10-23T14:27:51.100Z,75.64
2022-10-23T14:30:18.805Z,75.58
2022-10-23T14:32:46.506Z,75.46
2022-10-23T14:35:25.667Z,75.51
2022-10-23T14:37:53.216Z,75.52
2022-10-23T14:40:23.656Z,75.66
2022-10-23T14:42:54.997Z,75.66
2022-10-23T14:45:24.702Z,75.82
2022-10-23T14:47:55.741Z,75.43
2022-10-23T14:50:24.840Z,75.47
2022-10-23T14:52:55.239Z,75.50
2022-10-23T14:55:22.750Z,75.37
2022-10-23T14:57:55.049Z,75.62
2022-10-23T15:00:28.712Z,75.32
2022-10-23T15:02:58.650Z,75.09
2022-10-23T15:05:26.236Z,75.40
2022-10-23T15:07:55.353Z,75.28
2022-10-23T15:10:25.351Z,75.59
2022-10-23T15:12:52.995Z,75.48
2022-10-23T15:15:22.797Z,75.88
2022-10-23T15:17:52.825Z,75.89
2022-10-23T15:20:20.289Z,75.97
2022-10-23T15:22:52.364Z,76.07
2022-10-23T15:25:19.922Z,75.75
2022-10-23T15:27:54.620Z,75.84
2022-10-23T15:30:22.314Z,75.45
2022-10-23T15:32:55.373Z,75.35
2022-10-23T15:35:25.116Z,75.69
2022-10-23T15:37:52.648Z,76.13
2022-10-23T15:40:20.055Z,75.88
2022-10-23T15:42:49.853Z,76.18
2022-10-23T15:45:17.602Z,75.81
2022-10-23T15:47:45.305Z,75.96
2022-10-23T15:50:20.405Z,76.42
2022-10-23T15:52:51.946Z,76.57
2022-10-23T15:55:23.201Z,76.79
2022-10-23T15:57:50.710Z,76.60
2022-10-23T16:00:20.477Z,76.80
2022-10-23T16:02:48.412Z,76.77
2022-10-23T16:05:18.115Z,77.38
2022-10-23T16:07:48.648Z,76.90
2022-10-23T16:10:25.016Z,77.54
2022-10-23T16:12:52.627Z,77.13
2022-10-23T16:15:20.132Z,76.97
2022-10-23T16:17:50.162Z,77.09
2022-10-23T16:20:22.916Z,77.36
2022-10-23T16:23:00.209Z,77.07
2022-10-23T16:25:30.341Z,77.01
2022-10-23T16:28:00.095Z,76.73
2022-10-23T16:30:27.636Z,76.75
2022-10-23T16:32:55.220Z,76.89
2022-10-23T16:35:23.308Z,76.77
2022-10-23T16:38:05.820Z,76.69
2022-10-23T16:40:33.283Z,76.55
2022-10-23T16:43:27.701Z,76.53
2022-10-23T16:46:12.804Z,77.05
2022-10-23T16:48:40.860Z,76.43
2022-10-23T16:51:13.809Z,76.53
2022-10-23T16:53:48.613Z,76.75
2022-10-23T16:56:21.334Z,76.58
2022-10-23T16:58:51.059Z,76.37
2022-10-23T17:01:23.732Z,76.75
2022-10-23T17:03:52.768Z,76.55
2022-10-23T17:06:32.659Z,76.87
2022-10-23T17:09:02.076Z,76.27
2022-10-23T17:11:35.203Z,76.51
2022-10-23T17:14:06.761Z,76.59
2022-10-23T17:16:41.030Z,76.74
2022-10-23T17:19:20.963Z,76.46
2022-10-23T17:21:58.399Z,76.48
2022-10-23T17:24:30.879Z,76.56
2022-10-23T17:27:01.378Z,76.29
2022-10-23T17:29:28.958Z,75.95
2022-10-23T17:31:56.606Z,75.89
2022-10-23T17:34:26.472Z,76.13
2022-10-23T17:36:55.259Z,75.99
2022-10-23T17:39:29.432Z,76.53
2022-10-23T17:42:34.190Z,76.56
2022-10-23T17:45:47.899Z,76.47
2022-10-23T17:48:23.897Z,75.82
2022-10-23T17:51:42.087Z,76.41
2022-10-23T17:54:18.100Z,75.89
2022-10-23T17:57:03.373Z,76.66
2022-10-23T18:04:03.662Z,75.76
2022-10-23T18:07:54.149Z,76.18
2022-10-23T18:10:39.181Z,75.98
2022-10-23T18:13:09.759Z,75.90
2022-10-23T18:15:39.720Z,76.03
2022-10-23T18:18:17.069Z,76.50
2022-10-23T18:20:44.949Z,76.40
2022-10-23T18:23:12.423Z,76.40
2022-10-23T18:25:43.142Z,76.48
2022-10-23T18:28:10.757Z,76.46
2022-10-23T18:30:40.747Z,76.53
2022-10-23T18:33:08.295Z,76.35
2022-10-23T18:35:38.233Z,76.24
2022-10-23T18:38:05.879Z,76.33
2022-10-23T18:40:36.510Z,76.31
2022-10-23T18:43:09.046Z,76.33
2022-10-23T18:45:42.861Z,76.13
2022-10-23T18:48:10.415Z,76.23
2022-10-23T18:50:38.511Z,76.27
2022-10-23T18:53:09.021Z,76.46
2022-10-23T18:55:45.565Z,76.75
2022-10-23T18:58:13.126Z,76.49
2022-10-23T19:00:42.258Z,76.47
2022-10-23T19:03:16.370Z,76.55
2022-10-23T19:05:46.071Z,76.25
2022-10-23T19:08:13.979Z,76.30
2022-10-23T19:10:52.968Z,76.39
2022-10-23T19:13:22.711Z,76.46
2022-10-23T19:15:50.172Z,76.44
2022-10-23T19:18:27.344Z,76.66
2022-10-23T19:20:57.203Z,76.30
2022-10-23T19:23:30.212Z,76.17
2022-10-23T19:26:05.221Z,76.15
2022-10-23T19:28:37.685Z,76.18
2022-10-23T19:31:09.968Z,75.95
2022-10-23T19:33:39.096Z,75.85
2022-10-23T19:36:11.142Z,75.96
2022-10-23T19:38:42.522Z,75.75
2022-10-23T19:41:10.101Z,75.96
2022-10-23T19:43:50.692Z,75.71
2022-10-23T19:46:22.148Z,75.87
2022-10-23T19:48:49.740Z,75.84
2022-10-23T19:51:29.751Z,75.63
2022-10-23T19:54:00.706Z,75.56
2022-10-23T19:56:32.767Z,75.72
2022-10-23T19:59:00.297Z,75.74
2022-10-23T20:01:37.584Z,75.62
2022-10-23T20:04:14.461Z,75.69
2022-10-23T20:06:41.993Z,75.51
2022-10-23T20:09:10.087Z,75.59
2022-10-23T20:11:39.513Z,75.51
2022-10-23T20:14:07.248Z,75.48
2022-10-23T20:16:39.197Z,75.83
2022-10-23T20:19:11.952Z,75.68
2022-10-23T20:21:42.045Z,75.67
2022-10-23T20:24:11.349Z,75.59
2022-10-23T20:26:44.265Z,75.66
2022-10-23T20:29:13.770Z,75.74
2022-10-23T20:31:44.844Z,75.40
2022-10-23T20:34:16.779Z,75.36
2022-10-23T20:44:58.215Z,75.58
2022-10-23T20:48:12.371Z,75.26
2022-10-23T20:51:22.117Z,75.46
2022-10-23T20:54:26.030Z,75.40
2022-10-23T20:57:30.361Z,75.18
2022-10-23T21:00:05.701Z,75.47
2022-10-23T21:03:31.436Z,75.80
2022-10-23T21:07:04.484Z,75.19
2022-10-23T21:09:30.905Z,74.99
2022-10-23T21:12:01.166Z,75.40
2022-10-23T21:14:30.953Z,75.03
2022-10-23T21:16:58.458Z,75.36
2022-10-23T21:19:26.025Z,75.20
2022-10-23T21:21:54.509Z,75.17
2022-10-23T21:24:24.900Z,75.21
2022-10-23T21:26:57.681Z,74.98
2022-10-23T21:29:29.839Z,74.88
2022-10-23T21:32:02.106Z,74.66
2022-10-23T21:34:30.232Z,74.66
2022-10-23T21:37:13.165Z,74.48
2022-10-23T21:39:44.226Z,74.53
2022-10-23T21:42:15.162Z,74.29
2022-10-23T21:44:47.377Z,74.48
2022-10-23T21:47:22.195Z,74.34
2022-10-23T21:49:49.640Z,74.10
2022-10-23T21:52:19.910Z,74.18
2022-10-23T21:54:52.809Z,74.34
2022-10-23T21:57:20.993Z,74.35
2022-10-23T21:59:51.001Z,74.13
2022-10-23T22:02:21.440Z,74.40
2022-10-23T22:04:51.569Z,74.15
2022-10-23T22:07:21.608Z,74.31
2022-10-23T22:09:49.161Z,74.19
2022-10-23T22:12:16.629Z,74.42
2022-10-23T22:14:47.204Z,74.39
2022-10-23T22:17:14.869Z,74.41
2022-10-23T22:19:44.939Z,74.39
2022-10-23T22:22:12.569Z,74.33
2022-10-23T22:24:40.031Z,74.41
2022-10-23T22:27:07.478Z,74.38
2022-10-23T22:29:37.466Z,74.47
2022-10-23T22:32:05.228Z,74.51
2022-10-23T22:34:51.700Z,74.50
2022-10-23T22:37:21.910Z,74.53
2022-10-23T22:39:52.579Z,74.44
2022-10-23T22:42:20.920Z,74.49
2022-10-23T22:44:50.683Z,74.70
2022-10-23T22:47:20.460Z,74.58
2022-10-23T22:49:51.417Z,74.38
2022-10-23T22:52:21.405Z,74.41
2022-10-23T22:54:49.904Z,74.57
2022-10-23T22:57:17.453Z,74.51
2022-10-23T22:59:47.077Z,74.61
2022-10-23T23:02:14.562Z,74.55
2022-10-23T23:04:41.998Z,74.50
2022-10-23T23:07:12.180Z,74.72
2022-10-23T23:09:47.911Z,74.71
2022-10-23T23:12:20.700Z,74.70
2022-10-23T23:14:58.997Z,74.51
2022-10-23T23:17:26.492Z,74.36
2022-10-23T23:19:54.085Z,74.25
2022-10-23T23:22:21.776Z,74.33
2022-10-23T23:24:58.201Z,74.00
2022-10-23T23:27:27.205Z,74.13
2022-10-23T23:29:59.972Z,74.06
2022-10-23T23:32:27.545Z,74.01
2022-10-23T23:34:59.385Z,74.09
2022-10-23T23:37:27.068Z,74.04
2022-10-23T23:40:04.533Z,74.22
2022-10-23T23:42:32.114Z,74.02
2022-10-23T23:45:02.819Z,74.15
2022-10-23T23:47:41.515Z,73.87
2022-10-23T23:50:11.188Z,74.05
2022-10-23T23:52:38.747Z,73.99
2022-10-23T23:55:06.554Z,73.75
2022-10-23T23:57:34.166Z,73.66
